Grandeur Of The Seas — C6SE3 — position and weather

sailwx.info

Track history (hours):
 
Tides and Currents Weather Stations Pressure Air Temp Water Temp Dewpoint Dewpoint Depression Visibility Wind Speed Wind Dir Waves Ship Positions

Grandeur Of The Seas

Operator: Royal Caribbean Cruises Ltd

Last reported at 2014-Aug-31 07:00 UTC. Time now 2014-Sep-01 07:44 UTC.
Position N 33°30' W 067°12'.

Type: Passenger vessel. MMSI: 311315000.

Wind from 100 at 20 knots

Waves 1.5 meters (5 feet)

Barometer 1023.3 mb
Air temperature 25.0 ° C
Visibility: greater than 27.0 NM
Dewpoint 22.2 ° C
Water temperature 29.0 ° C

Date/timePositionNaut miles runAvg speedWind from/ knotsBaromVisibWave heightAir tempDewpointWater temp
2014-Aug-31 07:00N 33°30' W 067°12'9018.0 100 / 201023.327.0 1.525.022.229.0
2014-Aug-31 02:00N 34°12' W 068°48'38418.8 110 / 101023.0 1.525.023.628.0
2014-Aug-30 05:33N 36°54' W 075°55'1716.4
2014-Aug-30 04:33N 37°07' W 076°08'10818.1
2014-Aug-29 22:33N 38°55' W 076°23'1515.2
2014-Aug-29 21:34N 39°10' W 076°26'10 9.7
2014-Aug-29 20:34N 39°16' W 076°36'0 0.3
2014-Aug-29 19:32N 39°16' W 076°36'0 0.0
2014-Aug-29 18:32N 39°16' W 076°36'0 0.0
2014-Aug-29 17:32N 39°16' W 076°36'0 0.0
2014-Aug-29 16:32N 39°16' W 076°36'0 0.0
2014-Aug-29 15:29N 39°16' W 076°36'0 0.0
2014-Aug-29 14:32N 39°16' W 076°36'0 0.0
2014-Aug-29 13:29N 39°16' W 076°36'0 0.0
2014-Aug-29 12:32N 39°16' W 076°36'0 0.0
2014-Aug-29 11:32N 39°16' W 076°36'0 0.3
2014-Aug-29 10:33N 39°16' W 076°36'7 6.7
2014-Aug-29 09:33N 39°12' W 076°29'1212.2
2014-Aug-29 08:33N 39°00' W 076°23'10815.4
2014-Aug-29 01:33N 37°13' W 076°09'1515.2
2014-Aug-29 00:33N 36°59' W 076°00'16911.2
2014-Aug-28 09:28N 34°10' W 075°58'46913.2
2014-Aug-26 22:00N 26°54' W 079°18'   030 / 241011.0 5.4 0.529.026.331.0
2014-Aug-24 03:00N 30°18' W 077°42'51818.2 200 / 101012.0 2.2 28.026.731.0
2014-Aug-22 22:33N 38°52' W 076°24'1615.9
2014-Aug-22 21:33N 39°08' W 076°24'1111.2
2014-Aug-22 20:33N 39°15' W 076°35'1 0.8
2014-Aug-22 19:31N 39°16' W 076°36'0 0.0
2014-Aug-22 18:31N 39°16' W 076°36'0 0.0
2014-Aug-22 17:31N 39°16' W 076°36'0 0.0
2014-Aug-22 16:31N 39°16' W 076°36'0 0.0
2014-Aug-22 15:28N 39°16' W 076°36'0 0.0
2014-Aug-22 14:28N 39°16' W 076°36'0 0.0
2014-Aug-22 13:31N 39°16' W 076°36'0 0.0
2014-Aug-22 12:31N 39°16' W 076°36'0 0.0
2014-Aug-22 11:31N 39°16' W 076°36'0 0.2
2014-Aug-22 10:33N 39°16' W 076°36'8 7.9
2014-Aug-22 09:33N 39°11' W 076°28'1313.1
2014-Aug-22 08:32N 38°58' W 076°23'1515.1
2014-Aug-22 07:33N 38°44' W 076°26'7915.1
2014-Aug-22 02:20N 37°27' W 076°05'1316.2
2014-Aug-22 01:33N 37°14' W 076°08'1615.2
2014-Aug-22 00:31N 36°60' W 076°01'1313.3
2014-Aug-21 23:31N 36°51' W 075°48'1212.3
2014-Aug-21 22:33N 36°45' W 075°36'7512.5
2014-Aug-21 16:33N 36°13' W 074°12'1313.0
2014-Aug-21 15:31N 36°07' W 073°56'9 9.8
2014-Aug-21 14:34N 36°04' W 073°46'1111.1
2014-Aug-21 13:34N 35°59' W 073°33'1211.5
2014-Aug-21 12:31N 35°54' W 073°20'1111.7
2014-Aug-21 11:33N 35°49' W 073°07'1211.9
2014-Aug-21 10:33N 35°44' W 072°54'1312.5
2014-Aug-21 09:33N 35°39' W 072°40'1312.7
2014-Aug-21 08:34N 35°33' W 072°26'1212.3
2014-Aug-21 07:33N 35°28' W 072°12'  
Track history (hours):
 
Tides and Currents Weather Stations Pressure Air Temp Water Temp Dewpoint Dewpoint Depression Visibility Wind Speed Wind Dir Waves Ship Positions

Grandeur Of The Seas

Operator: Royal Caribbean Cruises Ltd

Last reported at 2014-Aug-31 07:00 UTC. Time now 2014-Sep-01 07:44 UTC.
Position N 33°30' W 067°12'.

Type: Passenger vessel. MMSI: 311315000.

Wind from 100 at 20 knots

Waves 1.5 meters (5 feet)

Barometer 1023.3 mb
Air temperature 25.0 ° C
Visibility: greater than 27.0 NM
Dewpoint 22.2 ° C
Water temperature 29.0 ° C

Date/timePositionNaut miles runAvg speedWind from/ knotsBaromVisibWave heightAir tempDewpointWater temp
2014-Aug-31 07:00N 33°30' W 067°12'9018.0 100 / 201023.327.0 1.525.022.229.0
2014-Aug-31 02:00N 34°12' W 068°48'38418.8 110 / 101023.0 1.525.023.628.0
2014-Aug-30 05:33N 36°54' W 075°55'1716.4
2014-Aug-30 04:33N 37°07' W 076°08'10818.1
2014-Aug-29 22:33N 38°55' W 076°23'1515.2
2014-Aug-29 21:34N 39°10' W 076°26'10 9.7
2014-Aug-29 20:34N 39°16' W 076°36'0 0.3
2014-Aug-29 19:32N 39°16' W 076°36'0 0.0
2014-Aug-29 18:32N 39°16' W 076°36'0 0.0
2014-Aug-29 17:32N 39°16' W 076°36'0 0.0
2014-Aug-29 16:32N 39°16' W 076°36'0 0.0
2014-Aug-29 15:29N 39°16' W 076°36'0 0.0
2014-Aug-29 14:32N 39°16' W 076°36'0 0.0
2014-Aug-29 13:29N 39°16' W 076°36'0 0.0
2014-Aug-29 12:32N 39°16' W 076°36'0 0.0
2014-Aug-29 11:32N 39°16' W 076°36'0 0.3
2014-Aug-29 10:33N 39°16' W 076°36'7 6.7
2014-Aug-29 09:33N 39°12' W 076°29'1212.2
2014-Aug-29 08:33N 39°00' W 076°23'10815.4
2014-Aug-29 01:33N 37°13' W 076°09'1515.2
2014-Aug-29 00:33N 36°59' W 076°00'16911.2
2014-Aug-28 09:28N 34°10' W 075°58'46913.2
2014-Aug-26 22:00N 26°54' W 079°18'   030 / 241011.0 5.4 0.529.026.331.0
2014-Aug-24 03:00N 30°18' W 077°42'51818.2 200 / 101012.0 2.2 28.026.731.0
2014-Aug-22 22:33N 38°52' W 076°24'1615.9
2014-Aug-22 21:33N 39°08' W 076°24'1111.2
2014-Aug-22 20:33N 39°15' W 076°35'1 0.8
2014-Aug-22 19:31N 39°16' W 076°36'0 0.0
2014-Aug-22 18:31N 39°16' W 076°36'0 0.0
2014-Aug-22 17:31N 39°16' W 076°36'0 0.0
2014-Aug-22 16:31N 39°16' W 076°36'0 0.0
2014-Aug-22 15:28N 39°16' W 076°36'0 0.0
2014-Aug-22 14:28N 39°16' W 076°36'0 0.0
2014-Aug-22 13:31N 39°16' W 076°36'0 0.0
2014-Aug-22 12:31N 39°16' W 076°36'0 0.0
2014-Aug-22 11:31N 39°16' W 076°36'0 0.2
2014-Aug-22 10:33N 39°16' W 076°36'8 7.9
2014-Aug-22 09:33N 39°11' W 076°28'1313.1
2014-Aug-22 08:32N 38°58' W 076°23'1515.1
2014-Aug-22 07:33N 38°44' W 076°26'7915.1
2014-Aug-22 02:20N 37°27' W 076°05'1316.2
2014-Aug-22 01:33N 37°14' W 076°08'1615.2
2014-Aug-22 00:31N 36°60' W 076°01'1313.3
2014-Aug-21 23:31N 36°51' W 075°48'1212.3
2014-Aug-21 22:33N 36°45' W 075°36'7512.5
2014-Aug-21 16:33N 36°13' W 074°12'1313.0
2014-Aug-21 15:31N 36°07' W 073°56'9 9.8
2014-Aug-21 14:34N 36°04' W 073°46'1111.1
2014-Aug-21 13:34N 35°59' W 073°33'1211.5
2014-Aug-21 12:31N 35°54' W 073°20'1111.7
2014-Aug-21 11:33N 35°49' W 073°07'1211.9
2014-Aug-21 10:33N 35°44' W 072°54'1312.5
2014-Aug-21 09:33N 35°39' W 072°40'1312.7
2014-Aug-21 08:34N 35°33' W 072°26'1212.3
2014-Aug-21 07:33N 35°28' W 072°12'  

Dump ship's entire track history